createdAt,value
2023-03-30T00:00:47.016Z,8.61
2023-03-30T00:03:32.823Z,8.59
2023-03-30T00:06:18.021Z,8.58
2023-03-30T00:09:04.380Z,8.66
2023-03-30T00:11:49.468Z,8.72
2023-03-30T00:14:35.226Z,8.61
2023-03-30T00:17:20.348Z,8.90
2023-03-30T00:20:07.349Z,8.84
2023-03-30T00:22:52.768Z,8.99
2023-03-30T00:25:38.127Z,8.86
2023-03-30T00:28:24.669Z,9.25
2023-03-30T00:31:10.235Z,8.92
2023-03-30T00:33:55.354Z,8.86
2023-03-30T00:36:40.753Z,8.98
2023-03-30T00:39:25.990Z,9.00
2023-03-30T00:42:14.970Z,9.03
2023-03-30T00:45:15.123Z,8.99
2023-03-30T00:48:16.488Z,8.98
2023-03-30T00:51:08.639Z,9.06
2023-03-30T00:53:59.695Z,9.32
2023-03-30T00:56:45.599Z,9.37
2023-03-30T00:59:32.306Z,9.28
2023-03-30T01:02:19.898Z,9.48
2023-03-30T01:05:06.058Z,8.81
2023-03-30T01:07:52.191Z,9.36
2023-03-30T01:10:37.554Z,9.30
2023-03-30T01:13:22.785Z,9.41
2023-03-30T01:16:42.489Z,9.49
2023-03-30T01:20:01.360Z,9.67
2023-03-30T01:22:54.537Z,9.65
2023-03-30T01:25:52.174Z,9.41
2023-03-30T01:28:56.895Z,9.49
2023-03-30T01:31:50.550Z,9.54
2023-03-30T01:34:53.850Z,9.46
2023-03-30T01:38:17.727Z,9.50
2023-03-30T01:41:16.194Z,9.27
2023-03-30T01:44:28.923Z,8.91
2023-03-30T01:47:28.110Z,9.06
2023-03-30T01:50:28.922Z,9.09
2023-03-30T01:53:14.014Z,9.16
2023-03-30T01:56:34.311Z,9.16
2023-03-30T01:59:30.561Z,8.85
2023-03-30T02:02:18.603Z,9.04
2023-03-30T02:05:05.538Z,8.95
2023-03-30T02:07:55.174Z,8.98
2023-03-30T02:10:44.086Z,8.66
2023-03-30T02:13:32.467Z,8.95
2023-03-30T02:16:24.517Z,8.96
2023-03-30T02:19:09.988Z,8.96
2023-03-30T02:21:56.042Z,8.55
2023-03-30T02:24:45.316Z,8.90
2023-03-30T02:27:30.682Z,8.90
2023-03-30T02:30:16.455Z,8.83
2023-03-30T02:33:02.323Z,8.77
2023-03-30T02:35:55.444Z,8.80
2023-03-30T02:38:50.849Z,8.56
2023-03-30T02:41:57.925Z,8.62
2023-03-30T02:44:58.250Z,8.53
2023-03-30T02:47:52.808Z,8.47
2023-03-30T02:50:51.032Z,8.58
2023-03-30T02:54:23.264Z,8.64
2023-03-30T02:57:51.158Z,8.71
2023-03-30T03:01:03.553Z,8.60
2023-03-30T03:04:01.563Z,8.64
2023-03-30T03:06:53.072Z,8.65
2023-03-30T03:09:38.136Z,8.60
2023-03-30T03:12:23.507Z,8.51
2023-03-30T03:15:09.392Z,8.50
2023-03-30T03:17:59.092Z,8.51
2023-03-30T03:20:44.275Z,8.15
2023-03-30T03:23:30.117Z,8.39
2023-03-30T03:26:15.415Z,8.59
2023-03-30T03:29:00.996Z,8.60
2023-03-30T03:31:46.288Z,8.65
2023-03-30T03:34:31.719Z,8.67
2023-03-30T03:37:21.213Z,7.43
2023-03-30T03:40:07.161Z,8.67
2023-03-30T03:42:53.050Z,8.73
2023-03-30T03:45:38.780Z,8.65
2023-03-30T03:48:25.179Z,8.57
2023-03-30T03:51:10.709Z,8.60
2023-03-30T03:53:56.545Z,8.42
2023-03-30T03:56:41.937Z,8.52
2023-03-30T03:59:27.563Z,8.27
2023-03-30T04:02:13.036Z,8.09
2023-03-30T04:04:58.590Z,8.18
2023-03-30T04:07:43.749Z,8.21
2023-03-30T04:10:30.342Z,8.12
2023-03-30T04:13:22.075Z,8.25
2023-03-30T04:16:08.466Z,8.31
2023-03-30T04:19:12.356Z,8.23
2023-03-30T04:22:09.120Z,8.09
2023-03-30T04:25:13.269Z,7.96
2023-03-30T04:28:17.807Z,7.95
2023-03-30T04:31:30.233Z,7.87
2023-03-30T04:34:40.505Z,7.92
2023-03-30T04:37:52.433Z,8.03
2023-03-30T04:40:52.549Z,8.05
2023-03-30T04:43:50.292Z,8.13
2023-03-30T04:46:54.903Z,8.09
2023-03-30T04:50:03.404Z,8.22
2023-03-30T04:53:07.722Z,8.26
2023-03-30T04:56:23.285Z,8.45
2023-03-30T04:59:38.605Z,8.62
2023-03-30T05:02:23.679Z,8.60
2023-03-30T05:05:21.300Z,8.55
2023-03-30T05:08:32.807Z,8.69
2023-03-30T05:11:35.927Z,8.86
2023-03-30T05:14:39.526Z,9.06
2023-03-30T05:17:45.690Z,9.02
2023-03-30T05:21:03.641Z,8.95
2023-03-30T05:24:05.290Z,8.88
2023-03-30T05:27:09.482Z,9.01
2023-03-30T05:30:05.151Z,8.87
2023-03-30T05:33:19.758Z,8.36
2023-03-30T05:36:11.486Z,8.36
2023-03-30T05:39:14.765Z,8.54
2023-03-30T05:42:20.349Z,8.77
2023-03-30T05:45:20.686Z,8.81
2023-03-30T05:48:31.802Z,8.81
2023-03-30T05:51:46.717Z,9.09
2023-03-30T05:54:45.552Z,9.02
2023-03-30T05:57:50.957Z,9.38
2023-03-30T06:01:02.760Z,9.10
2023-03-30T06:03:53.929Z,9.30
2023-03-30T06:06:39.519Z,9.55
2023-03-30T06:09:25.104Z,9.30
2023-03-30T06:12:10.554Z,10.00
2023-03-30T06:14:58.031Z,10.29
2023-03-30T06:17:49.748Z,10.31
2023-03-30T06:20:35.228Z,10.10
2023-03-30T06:23:20.960Z,9.39
2023-03-30T06:26:08.977Z,9.61
2023-03-30T06:28:55.739Z,9.61
2023-03-30T06:31:41.580Z,9.77
2023-03-30T06:34:46.892Z,9.84
2023-03-30T06:37:33.326Z,9.69
2023-03-30T06:40:19.044Z,9.90
2023-03-30T06:43:08.190Z,9.81
2023-03-30T06:45:56.477Z,9.92
2023-03-30T06:48:41.498Z,10.18
2023-03-30T06:51:46.007Z,10.12
2023-03-30T06:54:31.992Z,10.11
2023-03-30T06:57:23.469Z,10.04
2023-03-30T07:00:09.500Z,9.82
2023-03-30T07:03:17.569Z,9.64
2023-03-30T07:06:10.299Z,9.58
2023-03-30T07:08:57.406Z,9.51
2023-03-30T07:11:44.757Z,9.31
2023-03-30T07:14:30.300Z,9.34
2023-03-30T07:17:15.736Z,9.35
2023-03-30T07:20:01.235Z,9.36
2023-03-30T07:22:46.896Z,9.28
2023-03-30T07:25:34.292Z,9.21
2023-03-30T07:28:27.915Z,9.58
2023-03-30T07:31:13.909Z,9.55
2023-03-30T07:34:00.957Z,9.64
2023-03-30T07:36:50.041Z,9.69
2023-03-30T07:39:36.105Z,9.43
2023-03-30T07:42:23.054Z,9.40
2023-03-30T07:45:09.888Z,9.09
2023-03-30T07:47:56.569Z,9.33
2023-03-30T07:50:42.286Z,9.55
2023-03-30T07:53:27.718Z,9.68
2023-03-30T07:56:13.446Z,9.54
2023-03-30T07:59:03.347Z,9.43
2023-03-30T08:01:52.681Z,8.99
2023-03-30T08:04:55.226Z,9.25
2023-03-30T08:07:49.947Z,9.09
2023-03-30T08:10:41.941Z,9.05
2023-03-30T08:13:27.149Z,9.35
2023-03-30T08:16:12.592Z,9.25
2023-03-30T08:18:57.979Z,9.26
2023-03-30T08:21:43.939Z,9.12
2023-03-30T08:24:35.247Z,8.83
2023-03-30T08:27:20.829Z,9.25
2023-03-30T08:30:08.159Z,9.32
2023-03-30T08:32:53.504Z,9.61
2023-03-30T08:35:39.059Z,9.48
2023-03-30T08:38:24.591Z,9.43
2023-03-30T08:41:30.216Z,9.47
2023-03-30T08:44:36.396Z,9.41
2023-03-30T08:47:31.617Z,9.57
2023-03-30T08:50:35.814Z,9.58
2023-03-30T08:53:21.389Z,9.68
2023-03-30T08:56:21.418Z,10.02
2023-03-30T08:59:33.775Z,10.35
2023-03-30T09:02:24.349Z,10.69
2023-03-30T09:05:31.066Z,10.69
2023-03-30T09:08:21.267Z,10.53
2023-03-30T09:11:13.497Z,10.65
2023-03-30T09:14:03.214Z,10.62
2023-03-30T09:17:00.186Z,10.85
2023-03-30T09:20:03.576Z,10.58
2023-03-30T09:22:49.844Z,10.39
2023-03-30T09:25:47.368Z,10.53
2023-03-30T09:28:41.555Z,10.41
2023-03-30T09:31:45.029Z,10.60
2023-03-30T09:34:45.318Z,10.46
2023-03-30T09:37:30.987Z,10.39
2023-03-30T09:40:22.497Z,10.38
2023-03-30T09:43:32.980Z,10.36
2023-03-30T09:46:18.367Z,10.32
2023-03-30T09:49:15.104Z,10.21
2023-03-30T09:52:08.283Z,10.34
2023-03-30T09:54:54.385Z,10.54
2023-03-30T09:57:39.412Z,10.64
2023-03-30T10:00:30.511Z,10.50
2023-03-30T10:03:23.360Z,10.64
2023-03-30T10:06:12.072Z,10.72
2023-03-30T10:08:57.428Z,10.43
2023-03-30T10:11:50.823Z,11.11
2023-03-30T10:14:36.420Z,11.19
2023-03-30T10:17:24.675Z,11.06
2023-03-30T10:20:29.988Z,10.99
2023-03-30T10:23:19.906Z,10.89
2023-03-30T10:26:11.788Z,10.83
2023-03-30T10:29:02.352Z,10.83
2023-03-30T10:31:52.067Z,10.95
2023-03-30T10:34:42.582Z,10.59
2023-03-30T10:37:34.290Z,10.93
2023-03-30T10:40:21.540Z,11.11
2023-03-30T10:43:15.069Z,11.36
2023-03-30T10:46:24.547Z,11.41
2023-03-30T10:49:43.680Z,11.45
2023-03-30T10:52:43.189Z,11.41
2023-03-30T10:55:46.626Z,11.31
2023-03-30T10:58:31.690Z,11.40
2023-03-30T11:01:37.138Z,11.32
2023-03-30T11:04:38.727Z,11.50
2023-03-30T11:07:38.731Z,11.41
2023-03-30T11:10:27.598Z,11.69
2023-03-30T11:13:24.164Z,11.79
2023-03-30T11:16:25.628Z,11.98
2023-03-30T11:19:18.099Z,12.01
2023-03-30T11:22:17.923Z,11.89
2023-03-30T11:25:16.810Z,11.90
2023-03-30T11:28:11.674Z,11.96
2023-03-30T11:31:04.761Z,11.99
2023-03-30T11:34:31.045Z,12.13
2023-03-30T11:37:30.936Z,12.05
2023-03-30T11:40:18.205Z,12.19
2023-03-30T11:43:03.672Z,12.33
2023-03-30T11:45:52.053Z,11.87
2023-03-30T11:48:52.134Z,11.83
2023-03-30T11:52:03.492Z,11.70
2023-03-30T11:55:02.936Z,11.70
2023-03-30T11:58:26.438Z,11.89
2023-03-30T12:01:37.021Z,12.25
2023-03-30T12:04:38.256Z,12.35
2023-03-30T12:07:52.846Z,12.46
2023-03-30T12:10:42.795Z,12.47
2023-03-30T12:13:35.757Z,12.55
2023-03-30T12:16:40.440Z,12.80
2023-03-30T12:19:42.402Z,12.51
2023-03-30T12:22:38.354Z,12.32
2023-03-30T12:26:00.879Z,12.38
2023-03-30T12:29:20.763Z,12.52
2023-03-30T12:31:58.638Z,12.60
2023-03-30T12:34:44.548Z,12.74
2023-03-30T12:37:36.109Z,11.39
2023-03-30T12:40:21.782Z,9.96
2023-03-30T12:43:29.464Z,9.45
2023-03-30T12:46:33.722Z,9.39
2023-03-30T12:49:54.072Z,9.10
2023-03-30T12:52:57.973Z,8.65
2023-03-30T12:55:43.497Z,8.27
2023-03-30T12:58:42.813Z,8.20
2023-03-30T13:01:56.773Z,7.77
2023-03-30T13:04:45.244Z,8.21
2023-03-30T13:07:32.605Z,8.40
2023-03-30T13:10:30.224Z,8.05
2023-03-30T13:13:43.631Z,8.11
2023-03-30T13:17:06.407Z,8.11
2023-03-30T13:20:32.026Z,8.10
2023-03-30T13:23:20.465Z,8.10
2023-03-30T13:26:34.538Z,8.07
2023-03-30T13:29:24.247Z,8.32
2023-03-30T13:32:34.647Z,8.52
2023-03-30T13:35:41.435Z,8.85
2023-03-30T13:38:49.434Z,8.99
2023-03-30T13:42:10.050Z,9.44
2023-03-30T13:45:08.774Z,9.48
2023-03-30T13:48:17.114Z,9.55
2023-03-30T13:51:04.070Z,9.43
2023-03-30T13:53:58.591Z,9.81
2023-03-30T13:56:48.653Z,9.84
2023-03-30T13:59:37.614Z,9.73
2023-03-30T14:02:24.738Z,9.87
2023-03-30T14:05:27.106Z,9.89
2023-03-30T14:08:12.796Z,9.81
2023-03-30T14:10:58.800Z,9.70
2023-03-30T14:13:47.143Z,9.98
2023-03-30T14:16:39.913Z,9.85
2023-03-30T14:19:44.308Z,9.64
2023-03-30T14:22:30.704Z,9.45
2023-03-30T14:25:32.308Z,8.89
2023-03-30T14:28:20.149Z,9.23
2023-03-30T14:31:15.186Z,9.52
2023-03-30T14:34:01.267Z,9.46
2023-03-30T14:36:46.777Z,9.73
2023-03-30T14:39:38.745Z,9.95
2023-03-30T14:42:31.229Z,9.85
2023-03-30T14:45:18.896Z,9.60
2023-03-30T14:48:04.590Z,9.55
2023-03-30T14:50:50.498Z,9.75
2023-03-30T14:53:36.239Z,9.98
2023-03-30T14:56:22.972Z,10.07
2023-03-30T14:59:11.594Z,10.15
2023-03-30T15:01:57.061Z,10.07
2023-03-30T15:04:42.515Z,10.04
2023-03-30T15:07:32.057Z,9.97
2023-03-30T15:10:25.755Z,10.05
2023-03-30T15:13:38.583Z,10.06
2023-03-30T15:16:27.457Z,10.22
2023-03-30T15:19:24.659Z,10.14
2023-03-30T15:22:29.359Z,9.95
2023-03-30T15:25:28.100Z,9.49
2023-03-30T15:28:20.010Z,10.22
2023-03-30T15:31:05.957Z,10.57
2023-03-30T15:33:53.747Z,10.90
2023-03-30T15:36:40.621Z,10.49
2023-03-30T15:39:28.853Z,10.55
2023-03-30T15:42:25.616Z,10.75
2023-03-30T15:45:13.139Z,10.45
2023-03-30T15:47:58.455Z,10.40
2023-03-30T15:50:49.329Z,10.49
2023-03-30T15:53:46.706Z,10.14
2023-03-30T15:56:46.727Z,10.22
2023-03-30T15:59:37.521Z,10.19
2023-03-30T16:02:56.139Z,10.37
2023-03-30T16:05:41.629Z,10.44
2023-03-30T16:08:28.042Z,10.10
2023-03-30T16:11:15.164Z,9.65
2023-03-30T16:14:00.757Z,10.22
2023-03-30T16:16:46.946Z,10.14
2023-03-30T16:19:32.273Z,10.22
2023-03-30T16:22:17.443Z,10.22
2023-03-30T16:25:03.189Z,10.07
2023-03-30T16:27:48.883Z,9.99
2023-03-30T16:30:37.222Z,9.87
2023-03-30T16:33:22.645Z,10.06
2023-03-30T16:36:12.462Z,10.18
2023-03-30T16:38:57.426Z,10.19
2023-03-30T16:41:42.641Z,10.26
2023-03-30T16:44:27.953Z,10.32
2023-03-30T16:47:13.459Z,10.26
2023-03-30T16:49:59.472Z,10.16
2023-03-30T16:52:44.699Z,10.37
2023-03-30T16:55:30.131Z,10.12
2023-03-30T16:58:15.732Z,9.27
2023-03-30T17:01:01.518Z,9.60
2023-03-30T17:03:46.625Z,9.80
2023-03-30T17:06:31.912Z,9.93
2023-03-30T17:09:19.557Z,10.00
2023-03-30T17:12:04.950Z,9.61
2023-03-30T17:14:50.148Z,9.45
2023-03-30T17:17:35.715Z,9.33
2023-03-30T17:20:31.965Z,9.23
2023-03-30T17:23:18.814Z,9.16
2023-03-30T17:26:04.499Z,9.07
2023-03-30T17:28:50.235Z,8.91
2023-03-30T17:31:35.758Z,8.93
2023-03-30T17:34:21.560Z,8.69
2023-03-30T17:37:06.866Z,8.97
2023-03-30T17:39:52.291Z,9.05
2023-03-30T17:42:37.541Z,8.96
2023-03-30T17:45:25.700Z,8.49
2023-03-30T17:48:17.659Z,8.64
2023-03-30T17:51:03.218Z,8.67
2023-03-30T17:53:48.897Z,7.83
2023-03-30T17:56:34.166Z,8.32
2023-03-30T17:59:20.500Z,8.40
2023-03-30T18:02:06.216Z,8.33
2023-03-30T18:04:51.274Z,8.48
2023-03-30T18:07:36.844Z,8.05
2023-03-30T18:10:35.616Z,8.39
2023-03-30T18:13:24.570Z,8.43
2023-03-30T18:16:10.624Z,8.06
2023-03-30T18:18:58.091Z,8.40
2023-03-30T18:21:44.707Z,8.36
2023-03-30T18:24:30.277Z,8.28
2023-03-30T18:27:15.718Z,8.43
2023-03-30T18:30:01.543Z,8.22
2023-03-30T18:32:47.775Z,8.28
2023-03-30T18:35:35.728Z,8.28
2023-03-30T18:38:22.317Z,8.19
2023-03-30T18:41:11.466Z,8.23
2023-03-30T18:43:56.859Z,8.37
2023-03-30T18:46:45.916Z,8.39
2023-03-30T18:49:33.630Z,7.97
2023-03-30T18:52:19.962Z,8.02
2023-03-30T18:55:06.680Z,7.91
2023-03-30T18:57:52.918Z,7.88
2023-03-30T19:00:38.133Z,7.79
2023-03-30T19:03:25.143Z,7.26
2023-03-30T19:06:25.728Z,7.49
2023-03-30T19:09:12.020Z,7.62
2023-03-30T19:12:06.202Z,7.68
2023-03-30T19:14:51.935Z,7.57
2023-03-30T19:17:37.624Z,7.74
2023-03-30T19:20:25.110Z,7.84
2023-03-30T19:23:13.490Z,7.26
2023-03-30T19:25:58.987Z,7.83
2023-03-30T19:28:44.258Z,7.61
2023-03-30T19:31:29.593Z,7.62
2023-03-30T19:34:14.814Z,7.69
2023-03-30T19:37:00.436Z,7.50
2023-03-30T19:39:45.611Z,7.67
2023-03-30T19:42:30.952Z,7.74
2023-03-30T19:45:19.163Z,7.64
2023-03-30T19:48:04.796Z,7.46
2023-03-30T19:50:50.550Z,7.61
2023-03-30T19:53:36.115Z,7.57
2023-03-30T19:56:21.432Z,7.31
2023-03-30T19:59:06.734Z,7.32
2023-03-30T20:01:51.954Z,7.32
2023-03-30T20:04:37.085Z,7.25
2023-03-30T20:07:22.627Z,7.01
2023-03-30T20:10:10.693Z,6.89
2023-03-30T20:12:55.912Z,6.89
2023-03-30T20:15:40.950Z,6.96
2023-03-30T20:18:26.082Z,7.11
2023-03-30T20:21:11.312Z,7.05
2023-03-30T20:23:56.876Z,7.21
2023-03-30T20:26:43.313Z,7.28
2023-03-30T20:29:28.499Z,7.13
2023-03-30T20:32:13.990Z,6.79
2023-03-30T20:34:59.216Z,6.94
2023-03-30T20:37:44.519Z,6.88
2023-03-30T20:40:30.695Z,7.01
2023-03-30T20:43:15.987Z,7.13
2023-03-30T20:46:01.575Z,7.16
2023-03-30T20:48:47.045Z,7.19
2023-03-30T20:51:32.519Z,7.18
2023-03-30T20:54:17.957Z,7.23
2023-03-30T20:57:04.145Z,7.46
2023-03-30T20:59:50.311Z,7.40
2023-03-30T21:02:35.794Z,7.27
2023-03-30T21:05:20.952Z,7.29
2023-03-30T21:08:06.814Z,7.24
2023-03-30T21:10:52.315Z,7.54
2023-03-30T21:13:37.403Z,7.51
2023-03-30T21:16:24.296Z,7.33
2023-03-30T21:19:09.573Z,7.22
2023-03-30T21:21:55.750Z,7.29
2023-03-30T21:24:40.863Z,6.76
2023-03-30T21:27:26.288Z,7.06
2023-03-30T21:30:12.241Z,6.85
2023-03-30T21:32:57.536Z,6.31
2023-03-30T21:35:42.952Z,6.54
2023-03-30T21:38:30.347Z,6.57
2023-03-30T21:41:17.969Z,6.66
2023-03-30T21:44:03.519Z,6.86
2023-03-30T21:46:48.734Z,6.92
2023-03-30T21:49:34.139Z,6.86
2023-03-30T21:52:19.535Z,6.72
2023-03-30T21:55:05.365Z,6.61
2023-03-30T21:57:50.662Z,6.72
2023-03-30T22:00:36.187Z,6.47
2023-03-30T22:03:21.944Z,6.91
2023-03-30T22:06:09.581Z,6.85
2023-03-30T22:08:54.994Z,6.89
2023-03-30T22:11:40.372Z,6.66
2023-03-30T22:14:25.626Z,6.87
2023-03-30T22:17:10.850Z,7.08
2023-03-30T22:19:56.440Z,7.16
2023-03-30T22:22:42.675Z,7.01
2023-03-30T22:25:28.010Z,7.07
2023-03-30T22:28:13.164Z,6.94
2023-03-30T22:30:58.336Z,6.94
2023-03-30T22:33:43.870Z,6.89
2023-03-30T22:36:30.569Z,6.77
2023-03-30T22:39:16.195Z,6.50
2023-03-30T22:42:01.596Z,6.91
2023-03-30T22:44:47.049Z,7.05
2023-03-30T22:47:32.579Z,6.85
2023-03-30T22:50:17.926Z,6.65
2023-03-30T22:53:03.710Z,6.80
2023-03-30T22:55:49.140Z,6.74
2023-03-30T22:58:35.054Z,6.89
2023-03-30T23:01:20.228Z,6.78
2023-03-30T23:04:07.070Z,6.72
2023-03-30T23:06:52.364Z,6.50
2023-03-30T23:09:37.502Z,6.33
2023-03-30T23:12:22.598Z,6.56
2023-03-30T23:15:09.318Z,6.56
2023-03-30T23:17:55.117Z,6.83
2023-03-30T23:20:40.411Z,6.65
2023-03-30T23:23:26.624Z,7.19
2023-03-30T23:26:12.061Z,7.33
2023-03-30T23:28:58.622Z,7.37
2023-03-30T23:31:43.714Z,7.34
2023-03-30T23:34:29.579Z,7.31
2023-03-30T23:37:14.824Z,7.13
2023-03-30T23:40:00.382Z,7.32
2023-03-30T23:42:45.943Z,7.33
2023-03-30T23:45:31.131Z,7.26
2023-03-30T23:48:16.979Z,6.75
2023-03-30T23:51:02.684Z,6.49
2023-03-30T23:53:48.239Z,6.57
2023-03-30T23:56:35.890Z,6.66
2023-03-30T23:59:21.311Z,6.78
